createdAt,value
2019-02-10T16:53:35.937Z,30.40
2019-02-10T16:56:05.240Z,24.07
2019-02-10T16:58:34.603Z,32.20
2019-02-10T17:01:04.138Z,29.75
2019-02-10T17:03:33.539Z,25.08
2019-02-10T17:06:02.913Z,30.55
2019-02-10T17:08:32.362Z,27.70
2019-02-10T17:11:01.729Z,26.62
2019-02-10T17:13:31.094Z,27.77
2019-02-10T17:16:05.186Z,23.60
2019-02-10T17:18:31.447Z,21.97
2019-02-10T17:58:18.718Z,15.48
2019-02-10T18:00:49.655Z,11.50
2019-02-10T18:03:19.021Z,10.58
2019-02-10T18:05:48.386Z,9.68
2019-02-10T18:08:17.785Z,11.10
2019-02-10T18:10:47.147Z,14.73
2019-02-10T18:13:17.589Z,11.60
2019-02-10T18:15:51.613Z,13.20
2019-02-10T18:18:22.538Z,12.33
2019-02-10T18:20:59.723Z,12.58
2019-02-10T18:23:34.830Z,11.43
2019-02-10T18:26:24.345Z,9.13
2019-02-10T18:29:11.477Z,9.38
2019-02-10T18:31:45.079Z,9.23
2019-02-10T18:34:32.362Z,11.90
2019-02-10T18:37:12.378Z,10.93
2019-02-10T18:39:43.321Z,8.23
2019-02-10T18:42:20.792Z,11.83
2019-02-10T18:44:49.658Z,9.35
2019-02-10T18:47:36.911Z,11.60
2019-02-10T18:50:10.355Z,11.75
2019-02-10T18:52:41.360Z,9.45
2019-02-10T18:55:12.459Z,9.15
2019-02-10T18:57:46.393Z,8.05
2019-02-10T19:00:20.070Z,7.17
2019-02-10T19:02:57.150Z,10.80
2019-02-10T19:05:44.591Z,8.93
2019-02-10T19:08:18.311Z,9.30
2019-02-10T19:10:56.318Z,7.62
2019-02-10T19:13:30.307Z,8.33
2019-02-10T19:16:19.647Z,9.15
2019-02-10T19:18:53.342Z,7.60
2019-02-10T19:21:24.268Z,10.55
2019-02-10T19:23:58.194Z,9.38
2019-02-10T19:26:41.556Z,9.78
2019-02-10T19:29:12.583Z,9.10
2019-02-10T19:31:58.888Z,7.15
2019-02-10T19:34:35.467Z,7.42
2019-02-10T19:37:18.690Z,7.00
2019-02-10T19:39:49.633Z,10.60
2019-02-10T19:42:20.555Z,8.03
2019-02-10T19:45:00.526Z,6.90
2019-02-10T19:47:31.536Z,7.25
2019-02-10T19:50:05.262Z,5.47
2019-02-10T19:52:39.230Z,7.35
2019-02-10T19:55:10.154Z,5.42
2019-02-10T19:57:57.622Z,6.37
2019-02-10T20:00:31.354Z,6.30
2019-02-10T20:03:02.367Z,4.75
2019-02-10T20:05:36.323Z,5.87
2019-02-10T20:08:07.327Z,5.17
2019-02-10T20:10:56.431Z,7.42
2019-02-10T20:13:39.406Z,5.83
2019-02-10T20:16:13.143Z,5.03
2019-02-10T20:18:53.076Z,5.05
2019-02-10T20:21:29.889Z,8.43
2019-02-10T20:24:03.770Z,5.33
2019-02-10T20:26:40.522Z,5.03
2019-02-10T20:29:17.503Z,5.65
2019-02-10T20:31:48.511Z,5.17
2019-02-10T20:34:19.554Z,4.45
2019-02-10T20:36:53.463Z,4.22
2019-02-10T20:39:40.793Z,4.67
2019-02-10T20:42:12.695Z,5.47
2019-02-10T20:44:43.954Z,3.70
2019-02-10T20:49:45.382Z,3.55
2019-02-10T20:54:49.772Z,4.10
2019-02-10T20:57:23.970Z,3.22
2019-02-10T21:00:06.932Z,5.92
2019-02-10T21:02:37.978Z,3.90
2019-02-10T21:05:11.656Z,4.25
2019-02-10T21:07:42.662Z,4.72
2019-02-10T21:10:19.645Z,4.58
2019-02-10T21:12:50.642Z,4.28
2019-02-10T21:15:21.658Z,5.15
2019-02-10T21:20:41.854Z,2.50
2019-02-10T21:23:21.581Z,4.30
2019-02-10T21:25:58.398Z,3.00
2019-02-10T21:28:29.406Z,2.47
2019-02-10T21:31:06.433Z,3.27
2019-02-10T21:33:49.548Z,3.90
2019-02-10T21:36:26.230Z,2.45
2019-02-10T21:38:57.234Z,3.22
2019-02-10T21:41:34.033Z,3.05
2019-02-10T21:44:05.106Z,3.20
2019-02-10T21:46:44.943Z,4.33
2019-02-10T21:49:14.329Z,1.92
2019-02-10T21:51:43.692Z,1.70
2019-02-10T21:54:13.150Z,1.77
2019-02-10T21:56:42.838Z,3.00
2019-02-10T21:59:12.274Z,2.83
2019-02-10T22:01:41.622Z,3.47
2019-02-10T22:04:11.175Z,4.90
2019-02-10T22:06:40.590Z,3.90
2019-02-10T22:09:11.082Z,1.60
2019-02-10T22:11:40.626Z,2.12
2019-02-10T22:14:10.218Z,4.97
2019-02-10T22:16:39.828Z,2.72
2019-02-10T22:19:09.310Z,2.00
2019-02-10T22:21:38.883Z,1.98
2019-02-10T22:24:08.413Z,2.60
2019-02-10T22:26:37.810Z,1.87
2019-02-10T22:29:07.148Z,1.47
2019-02-10T22:31:36.571Z,2.58
2019-02-10T22:34:06.154Z,5.05
2019-02-10T22:36:35.588Z,1.50
2019-02-10T22:39:05.323Z,4.03
2019-02-10T22:41:34.910Z,2.47
2019-02-10T22:44:04.276Z,2.08
2019-02-10T22:46:33.650Z,2.92
2019-02-10T22:49:04.003Z,3.50
2019-02-10T22:51:33.327Z,4.40
2019-02-10T22:54:02.803Z,1.90
2019-02-10T22:56:32.429Z,3.90
2019-02-10T22:59:03.091Z,1.20
2019-02-10T23:01:33.960Z,2.30
2019-02-10T23:04:03.523Z,1.10
2019-02-10T23:06:33.421Z,2.33
2019-02-10T23:09:06.091Z,1.10
2019-02-10T23:11:35.615Z,1.70
2019-02-10T23:14:05.222Z,2.27
2019-02-10T23:16:34.701Z,1.55
2019-02-10T23:19:04.225Z,1.75
2019-02-10T23:21:33.765Z,2.85
2019-02-10T23:24:04.930Z,2.05
2019-02-10T23:29:03.480Z,1.37
2019-02-10T23:31:32.862Z,2.42
2019-02-10T23:34:02.298Z,2.10
2019-02-10T23:36:31.659Z,1.98
2019-02-10T23:39:01.097Z,0.88
2019-02-10T23:41:31.714Z,1.72
2019-02-10T23:44:01.145Z,1.02
2019-02-10T23:46:30.503Z,1.02
2019-02-10T23:48:59.903Z,0.60
2019-02-10T23:51:29.315Z,1.07
2019-02-10T23:53:58.683Z,0.98
2019-02-10T23:56:28.043Z,1.12
2019-02-10T23:58:57.406Z,0.80
